»·PEaware :: N256Z 74S-KSFF

N256Z :: 74S-KSFF

FLIGHT INFORMATION

Flight Status: Arrived
Operator: Privately registered:
United States
More flights under this callsign
Pilot: Gregory A. (9731)
Aircraft: PIPER PA-46-310/350P MALIBU MIRAGE
(PA46)
More flights by this aircraft type
Origin: 74S Anacortes
United States
Destination: KSFF Felts
United States
More flights between these airports :: More routes between these airports
Route: +ORCUS J502 SEA J12 EPH ZOOMR1
File this flight plan on PilotEdge
Remarks:
Altitude:
(Current/Filed)
270ft
Speed:
(Current/Filed)
260kts
Departed: 04-Jun-18 09:09 AM
Arrived: 04-Jun-18 10:36 AM
Distance/Time
Traveled:
220nm/1:27
Distance/Time
To Go:
Arrived

Flight Plot

Page will automatically refresh every two minutes.

Flight plan parsing failed; only flown route is shown


Map Options




Map Legend


Flown Route
Filed Route
Departure Airport
Arrival Airport
Navaid (VOR, NDB)
Fix

Horizontal Profiles

Position Reports

Time Latitude Longitude Heading Altitude Ground
Speed
04-Jun-18 08:56 48.497903 -122.660839 198 249ft 0kts
04-Jun-18 08:57 48.497903 -122.660840 198 249ft 0kts
04-Jun-18 08:58 48.497903 -122.660840 198 249ft 0kts
04-Jun-18 08:59 48.497903 -122.660840 198 249ft 0kts
04-Jun-18 09:00 48.497903 -122.660840 198 249ft 0kts
04-Jun-18 09:01 48.497903 -122.660840 198 249ft 0kts
04-Jun-18 09:02 48.497902 -122.660840 198 249ft 0kts
04-Jun-18 09:03 48.497900 -122.660841 198 249ft 0kts
04-Jun-18 09:04 48.497899 -122.660842 198 249ft 0kts
04-Jun-18 09:05 48.497897 -122.660842 198 249ft 0kts
04-Jun-18 09:06 48.497684 -122.661388 244 249ft 2kts
04-Jun-18 09:07 48.497668 -122.661437 244 249ft 1kts
04-Jun-18 09:08 48.500153 -122.660904 19 249ft 21kts
04-Jun-18 09:09 48.501057 -122.661066 198 249ft 41kts
04-Jun-18 09:10 48.481081 -122.692349 248 934ft 155kts
04-Jun-18 09:11 48.470633 -122.761479 266 2242ft 155kts
04-Jun-18 09:12 48.452701 -122.807055 238 4417ft 143kts
04-Jun-18 09:13 48.432364 -122.864437 243 6790ft 169kts
04-Jun-18 09:14 48.409940 -122.931869 245 8817ft 184kts
04-Jun-18 09:15 48.386645 -123.001915 246 10829ft 193kts
04-Jun-18 09:16 48.362827 -123.073325 248 12825ft 191kts
04-Jun-18 09:17 48.353780 -123.100450 249 13580ft 194kts
04-Jun-18 09:18 48.304079 -123.109196 143 15598ft 233kts
04-Jun-18 09:19 48.251579 -123.048645 145 17602ft 249kts
04-Jun-18 09:20 48.193170 -122.991301 150 19600ft 249kts
04-Jun-18 09:21 48.133592 -122.936063 151 21601ft 262kts
04-Jun-18 09:22 48.069268 -122.877426 152 23613ft 275kts
04-Jun-18 09:23 48.003038 -122.817350 153 25609ft 282kts
04-Jun-18 09:24 47.935398 -122.756229 154 27353ft 295kts
04-Jun-18 09:25 47.858958 -122.687933 153 27413ft 334kts
04-Jun-18 09:26 47.779176 -122.616300 153 27396ft 334kts
04-Jun-18 09:27 47.699718 -122.545171 153 27388ft 332kts
04-Jun-18 09:28 47.620552 -122.474579 153 27387ft 332kts
04-Jun-18 09:29 47.541350 -122.404192 153 27389ft 332kts
04-Jun-18 09:30 47.462669 -122.332446 140 27374ft 334kts
04-Jun-18 09:31 47.435330 -122.208851 83 27382ft 316kts
04-Jun-18 09:32 47.432688 -122.080024 80 27386ft 314kts
04-Jun-18 09:33 47.431330 -121.950726 79 27375ft 314kts
04-Jun-18 09:34 47.429877 -121.821563 79 27355ft 315kts
04-Jun-18 09:35 47.428251 -121.692151 79 27329ft 315kts
04-Jun-18 09:36 47.426464 -121.562278 79 27301ft 315kts
04-Jun-18 09:37 47.424537 -121.432926 80 27281ft 315kts
04-Jun-18 09:38 47.422467 -121.303331 80 27274ft 315kts
04-Jun-18 09:39 47.420266 -121.174179 80 27278ft 315kts
04-Jun-18 09:40 47.417916 -121.045141 80 27290ft 315kts
04-Jun-18 09:41 47.415418 -120.914814 80 26865ft 316kts
04-Jun-18 09:42 47.412706 -120.787558 80 26142ft 307kts
04-Jun-18 09:43 47.410074 -120.662272 80 25345ft 304kts
04-Jun-18 09:44 47.407302 -120.537114 81 24462ft 304kts
04-Jun-18 09:45 47.404345 -120.413921 81 23463ft 294kts
04-Jun-18 09:46 47.401428 -120.295861 81 22458ft 281kts
04-Jun-18 09:47 47.398643 -120.181710 81 21460ft 276kts
04-Jun-18 09:48 47.395748 -120.069437 82 20461ft 270kts
04-Jun-18 09:49 47.392811 -119.961317 82 19457ft 258kts
04-Jun-18 09:50 47.389967 -119.856471 82 18458ft 254kts
04-Jun-18 09:51 47.387035 -119.753142 84 17460ft 250kts
04-Jun-18 09:52 47.384050 -119.652725 84 16456ft 237kts
04-Jun-18 09:53 47.381291 -119.556872 85 15457ft 231kts
04-Jun-18 09:54 47.378545 -119.462673 85 14457ft 227kts
04-Jun-18 09:55 47.379886 -119.372264 80 13787ft 214kts
04-Jun-18 09:56 47.383487 -119.285353 80 13288ft 211kts
04-Jun-18 09:57 47.387443 -119.199095 80 12786ft 209kts
04-Jun-18 09:58 47.391409 -119.113499 80 12289ft 208kts
04-Jun-18 09:59 47.395182 -119.028271 82 11792ft 207kts
04-Jun-18 10:00 47.398801 -118.943123 82 11290ft 207kts
04-Jun-18 10:01 47.402559 -118.858798 82 11028ft 207kts
04-Jun-18 10:02 47.406098 -118.772335 82 11024ft 212kts
04-Jun-18 10:03 47.409617 -118.685557 82 11015ft 205kts
04-Jun-18 10:04 47.413077 -118.604413 82 11013ft 204kts
04-Jun-18 10:05 47.416406 -118.520771 82 11006ft 203kts
04-Jun-18 10:06 47.419755 -118.437558 82 11001ft 203kts
04-Jun-18 10:07 47.423183 -118.354151 82 10994ft 203kts
04-Jun-18 10:08 47.432954 -118.272448 69 10987ft 201kts
04-Jun-18 10:09 47.448608 -118.193348 68 10978ft 200kts
04-Jun-18 10:10 47.461811 -118.112827 75 10972ft 203kts
04-Jun-18 10:11 47.471473 -118.030746 75 10967ft 203kts
04-Jun-18 10:12 47.481078 -117.948511 75 10964ft 203kts
04-Jun-18 10:13 47.490685 -117.865625 75 10881ft 207kts
04-Jun-18 10:14 47.500835 -117.782767 75 10213ft 199kts
04-Jun-18 10:15 47.511426 -117.702961 75 9548ft 197kts
04-Jun-18 10:16 47.522966 -117.623475 75 8882ft 197kts
04-Jun-18 10:17 47.533773 -117.552413 75 8285ft 196kts
04-Jun-18 10:18 47.545853 -117.473673 75 7619ft 195kts
04-Jun-18 10:19 47.557967 -117.395946 75 7016ft 191kts
04-Jun-18 10:20 47.569859 -117.321803 70 6982ft 180kts
04-Jun-18 10:21 47.587105 -117.252632 67 6992ft 177kts
04-Jun-18 10:22 47.604551 -117.184294 67 6991ft 177kts
04-Jun-18 10:23 47.622068 -117.116215 67 6986ft 177kts
04-Jun-18 10:24 47.639687 -117.047896 67 6981ft 177kts
04-Jun-18 10:25 47.665838 -116.990077 29 6975ft 170kts
04-Jun-18 10:26 47.705259 -116.958351 351 6905ft 149kts
04-Jun-18 10:27 47.735836 -116.991773 316 6126ft 138kts
04-Jun-18 10:28 47.764946 -117.030251 316 5155ft 139kts
04-Jun-18 10:29 47.772490 -117.077287 265 4991ft 126kts
04-Jun-18 10:30 47.769037 -117.132057 260 4947ft 136kts
04-Jun-18 10:31 47.755417 -117.179458 234 4283ft 121kts
04-Jun-18 10:32 47.735021 -117.216421 233 3582ft 104kts
04-Jun-18 10:33 47.718586 -117.250198 235 3067ft 105kts
04-Jun-18 10:34 47.700221 -117.288261 235 2478ft 118kts
04-Jun-18 10:35 47.683670 -117.321987 234 1957ft 82kts
04-Jun-18 10:36 47.678888 -117.330921 143 1957ft 3kts
04-Jun-18 10:37 47.679495 -117.326701 71 1957ft 15kts
04-Jun-18 10:38 47.680806 -117.321373 69 1957ft 16kts
04-Jun-18 10:39 47.680739 -117.320868 248 1957ft 10kts
04-Jun-18 10:40 47.681027 -117.321281 154 1957ft 0kts
04-Jun-18 10:41 47.681027 -117.321281 154 1957ft 0kts

Navigation Log

Ident Type
Flight plan parsing failed, navigation log unavailable